Altmar, NY

7:12 AM EDT on May 23, 2015 (GMT -0400)
Lorton Lake Back End | | Change Station
CLOSE
Current Station
Personal Weather Station
Location: Altmar, NY
Elevation: 870 ft
Nearby Weather Stations
Active Advisory: Freeze Warning

Elev 870 ft 43.50 °N, 75.89 °W | Updated 47 seconds ago

Clear
Clear
31.6 °F
Feels Like 32 °F
N
0.0
Wind Variable Wind from NNE

Today
High -- | Low -- °F
--% Chance of Precip.
Yesterday
High -- | Low -- °F
Precip. -- in
5:32 AM 8:29 PM
Waxing Crescent, 29% visible
Pressure 30.40 in
Visibility 10.0 miles
Clouds Clear
Windchill 32 °F
Dew Point 28 °F
Humidity 87%
Rainfall 0.00 in
Snow Depth Not available.
UV 1 out of 12
Pollen 7.90 out of 12
Air Quality Not available.
Flu Activity Widespread
METAR KFZY 231054Z AUTO 00000KT 10SM CLR 02/00 A3039 RMK AO2 SLP294 T00220000

More Conditions Fewer Conditions

Pressure 30.40 in
Visibility 10.0 miles
Clouds Clear
Windchill 32 °F
Dew Point 28 °F
Humidity 87%
Rainfall 0.00 in
Snow Depth Not available.
UV 1 out of 12
Pollen 7.90 out of 12
Air Quality Not available.
Flu Activity Widespread
METAR KFZY 231054Z AUTO 00000KT 10SM CLR 02/00 A3039 RMK AO2 SLP294 T00220000

More Conditions Fewer Conditions

10-Day Weather Forecast

Almanac

Astronomy

May. 23, 2015 Rise Set
Actual Time
Civil Twilight
Nautical Twilight
Astronomical Twilight
Moon
Length of Visible Light
Length of Day
Tomorrow will be .
, % of the Moon is Illuminated

Today's Extremes

State Highs State Lows

Community

WunderPhotos

Upload Photos

1,823,409 photos uploaded!

WunderBlogs® & News

Nearby

Air Quality

  Air Quality AQ Index Pollutant
Not available.

Snow Depth

Station Depth Elevation

Earthquake Activity

City Distance Mag. Time & Date
Minimum magnitude displayed is 2.5.

Coastal Water Temperatures

Place Temperature

Stations

Nearby Weather Stations

Station Location Temp. Windchill Dew Point Humidity Wind Precip. Elev Updated Type
                   
Freeze Warning
Statement as of 3:40 AM EDT on May 23, 2015

... Freeze warning remains in effect until 9 am EDT this morning...

* locations... Jefferson and Lewis counties.

* Timing... into the mid morning hours.

* Temperatures... in the upper 20s to lower 30s.

* Impacts... such temperatures will result in damage to tender
vegetation unless protective measures are taken.

Precautionary/preparedness actions...

A freeze warning is issued when freezing temperatures are
forecast to threaten outdoor plants. If you are in the warned
area you should protect tender vegetation. Also... potted plants
normally left outdoors should be covered or brought inside away
from the cold. Stay tuned to weather radio or other radio and TV
stations for further details or updates.